createdAt,value
2019-05-18T00:00:37.874Z,11.57
2019-05-18T00:03:09.656Z,11.66
2019-05-18T00:05:41.066Z,11.89
2019-05-18T00:08:12.517Z,11.78
2019-05-18T00:10:44.282Z,11.95
2019-05-18T00:13:15.691Z,11.88
2019-05-18T00:15:47.052Z,11.73
2019-05-18T00:18:18.511Z,11.73
2019-05-18T00:20:49.846Z,11.66
2019-05-18T00:23:21.302Z,11.48
2019-05-18T00:25:52.756Z,11.65
2019-05-18T00:28:25.957Z,11.40
2019-05-18T00:30:57.194Z,11.18
2019-05-18T00:33:28.722Z,11.03
2019-05-18T00:36:00.111Z,11.01
2019-05-18T00:38:31.522Z,11.16
2019-05-18T00:41:02.978Z,11.42
2019-05-18T00:43:34.566Z,11.49
2019-05-18T00:46:06.271Z,11.27
2019-05-18T00:48:38.132Z,11.11
2019-05-18T00:51:09.558Z,11.19
2019-05-18T00:53:40.864Z,11.02
2019-05-18T00:56:12.302Z,11.10
2019-05-18T00:58:43.786Z,11.10
2019-05-18T01:01:15.426Z,11.11
2019-05-18T01:03:48.144Z,11.24
2019-05-18T01:06:19.617Z,11.29
2019-05-18T01:08:51.288Z,11.39
2019-05-18T01:11:23.048Z,11.33
2019-05-18T01:13:54.483Z,11.41
2019-05-18T01:16:25.870Z,11.27
2019-05-18T01:18:57.557Z,11.25
2019-05-18T01:21:29.109Z,11.11
2019-05-18T01:24:00.920Z,11.03
2019-05-18T01:26:36.521Z,11.26
2019-05-18T01:29:08.673Z,11.17
2019-05-18T01:31:40.585Z,11.14
2019-05-18T01:34:11.974Z,11.07
2019-05-18T01:36:43.644Z,10.92
2019-05-18T01:39:15.761Z,10.85
2019-05-18T01:41:50.057Z,10.93
2019-05-18T01:44:22.396Z,10.82
2019-05-18T01:46:56.270Z,10.74
2019-05-18T01:49:28.325Z,10.80
2019-05-18T01:52:00.119Z,10.78
2019-05-18T01:54:31.649Z,10.84
2019-05-18T01:57:03.333Z,10.85
2019-05-18T01:59:36.535Z,10.74
2019-05-18T02:02:08.037Z,10.75
2019-05-18T02:04:39.297Z,10.83
2019-05-18T02:07:10.726Z,10.79
2019-05-18T02:09:45.009Z,10.78
2019-05-18T02:12:17.093Z,10.92
2019-05-18T02:14:49.711Z,11.10
2019-05-18T02:17:24.050Z,11.12
2019-05-18T02:19:55.536Z,11.29
2019-05-18T02:22:27.042Z,11.26
2019-05-18T02:24:58.790Z,10.95
2019-05-18T02:27:30.645Z,11.07
2019-05-18T02:30:02.403Z,11.11
2019-05-18T02:32:43.842Z,10.99
2019-05-18T02:35:20.103Z,11.25
2019-05-18T02:37:51.903Z,11.04
2019-05-18T02:40:23.225Z,11.19
2019-05-18T02:42:54.882Z,10.72
2019-05-18T02:45:26.397Z,10.81
2019-05-18T02:47:58.112Z,10.95
2019-05-18T02:50:29.609Z,11.16
2019-05-18T02:53:01.791Z,10.92
2019-05-18T02:55:33.643Z,10.78
2019-05-18T02:58:06.153Z,10.74
2019-05-18T03:00:37.995Z,10.72
2019-05-18T03:03:09.558Z,10.88
2019-05-18T03:05:41.021Z,11.02
2019-05-18T03:08:12.738Z,10.90
2019-05-18T03:10:44.148Z,10.94
2019-05-18T03:13:16.569Z,10.78
2019-05-18T03:15:47.944Z,10.89
2019-05-18T03:18:19.368Z,10.63
2019-05-18T03:20:51.024Z,10.63
2019-05-18T03:23:22.618Z,11.03
2019-05-18T03:25:54.029Z,11.03
2019-05-18T03:28:25.728Z,11.09
2019-05-18T03:30:57.360Z,11.10
2019-05-18T03:33:30.169Z,11.04
2019-05-18T03:36:01.735Z,11.10
2019-05-18T03:38:33.195Z,11.46
2019-05-18T03:41:04.486Z,11.58
2019-05-18T03:43:37.857Z,11.67
2019-05-18T03:46:09.104Z,11.84
2019-05-18T03:48:40.492Z,11.43
2019-05-18T03:51:11.942Z,11.96
2019-05-18T03:53:43.372Z,11.73
2019-05-18T03:56:14.614Z,11.69
2019-05-18T03:58:46.135Z,11.35
2019-05-18T04:01:17.361Z,11.34
2019-05-18T04:03:48.873Z,11.40
2019-05-18T04:06:22.958Z,11.53
2019-05-18T04:08:54.581Z,11.53
2019-05-18T04:11:25.802Z,11.41
2019-05-18T04:13:58.488Z,11.46
2019-05-18T04:16:31.071Z,11.40
2019-05-18T04:19:02.575Z,11.48
2019-05-18T04:21:34.102Z,11.48
2019-05-18T04:24:05.467Z,11.93
2019-05-18T04:26:36.912Z,12.00
2019-05-18T04:29:08.693Z,12.09
2019-05-18T04:31:40.426Z,12.38
2019-05-18T04:34:12.134Z,12.60
2019-05-18T04:36:43.729Z,12.99
2019-05-18T04:39:21.310Z,13.08
2019-05-18T04:41:52.996Z,12.67
2019-05-18T04:44:24.530Z,12.51
2019-05-18T04:46:57.593Z,12.67
2019-05-18T04:49:30.629Z,12.47
2019-05-18T04:52:01.933Z,12.16
2019-05-18T04:54:34.133Z,12.32
2019-05-18T04:57:06.153Z,12.69
2019-05-18T04:59:37.599Z,13.40
2019-05-18T05:02:09.383Z,13.26
2019-05-18T05:04:41.002Z,13.03
2019-05-18T05:07:12.320Z,13.07
2019-05-18T05:09:44.001Z,13.08
2019-05-18T05:12:16.173Z,12.99
2019-05-18T05:14:49.951Z,12.76
2019-05-18T05:17:21.563Z,12.72
2019-05-18T05:19:52.872Z,12.72
2019-05-18T05:22:25.314Z,12.82
2019-05-18T05:24:57.259Z,12.68
2019-05-18T05:27:30.825Z,12.82
2019-05-18T05:30:07.231Z,12.97
2019-05-18T05:32:46.281Z,12.93
2019-05-18T05:35:18.032Z,12.88
2019-05-18T05:37:49.918Z,12.98
2019-05-18T05:40:21.714Z,12.97
2019-05-18T05:42:53.899Z,13.20
2019-05-18T05:45:25.983Z,13.40
2019-05-18T05:47:57.446Z,13.50
2019-05-18T05:50:35.774Z,13.29
2019-05-18T05:53:03.048Z,13.23
2019-05-18T05:55:35.031Z,13.19
2019-05-18T05:58:06.782Z,13.27
2019-05-18T06:00:38.185Z,13.42
2019-05-18T06:03:10.458Z,13.61
2019-05-18T06:05:41.981Z,13.67
2019-05-18T06:08:13.611Z,13.78
2019-05-18T06:10:45.375Z,13.89
2019-05-18T06:13:16.843Z,13.64
2019-05-18T06:15:48.335Z,13.86
2019-05-18T06:18:19.852Z,13.84
2019-05-18T06:20:52.183Z,13.76
2019-05-18T06:23:23.621Z,13.81
2019-05-18T06:25:55.107Z,14.06
2019-05-18T06:28:26.729Z,13.98
2019-05-18T06:31:00.237Z,13.95
2019-05-18T06:33:31.771Z,14.07
2019-05-18T06:36:03.333Z,14.22
2019-05-18T06:38:34.791Z,14.09
2019-05-18T06:41:06.026Z,14.25
2019-05-18T06:43:37.430Z,14.35
2019-05-18T06:46:08.700Z,14.61
2019-05-18T06:48:39.942Z,14.43
2019-05-18T06:51:11.393Z,14.50
2019-05-18T06:53:42.985Z,14.77
2019-05-18T06:56:14.956Z,14.63
2019-05-18T06:58:46.685Z,14.82
2019-05-18T07:01:17.945Z,14.82
2019-05-18T07:03:52.111Z,15.03
2019-05-18T07:06:23.169Z,15.03
2019-05-18T07:08:56.469Z,15.08
2019-05-18T07:11:29.699Z,15.21
2019-05-18T07:14:01.238Z,15.14
2019-05-18T07:16:32.739Z,15.20
2019-05-18T07:19:04.472Z,15.32
2019-05-18T07:21:35.897Z,15.49
2019-05-18T07:24:10.049Z,15.71
2019-05-18T07:26:42.741Z,15.75
2019-05-18T07:29:50.511Z,15.69
2019-05-18T07:32:31.330Z,15.93
2019-05-18T07:35:02.951Z,16.12
2019-05-18T07:37:45.375Z,15.94
2019-05-18T07:40:17.074Z,16.36
2019-05-18T07:42:48.708Z,16.53
2019-05-18T07:45:20.321Z,16.54
2019-05-18T07:47:51.633Z,16.41
2019-05-18T07:50:23.111Z,16.38
2019-05-18T07:52:54.922Z,16.50
2019-05-18T07:55:26.604Z,16.51
2019-05-18T07:58:01.379Z,16.64
2019-05-18T08:00:34.098Z,16.76
2019-05-18T08:03:06.266Z,16.85
2019-05-18T08:05:37.840Z,16.84
2019-05-18T08:08:09.591Z,17.08
2019-05-18T08:10:43.616Z,17.29
2019-05-18T08:13:16.799Z,17.14
2019-05-18T08:15:48.653Z,17.03
2019-05-18T08:18:21.927Z,17.44
2019-05-18T08:20:53.315Z,17.21
2019-05-18T08:23:24.813Z,17.22
2019-05-18T08:25:56.951Z,17.10
2019-05-18T08:28:29.440Z,17.24
2019-05-18T08:31:01.221Z,17.22
2019-05-18T08:33:33.057Z,17.19
2019-05-18T08:36:04.737Z,17.28
2019-05-18T08:38:36.603Z,17.33
2019-05-18T08:41:07.894Z,17.36
2019-05-18T08:43:39.184Z,17.50
2019-05-18T08:46:10.616Z,17.67
2019-05-18T08:48:42.063Z,17.63
2019-05-18T08:51:16.068Z,17.13
2019-05-18T08:53:47.808Z,17.55
2019-05-18T08:56:19.280Z,17.95
2019-05-18T08:58:51.749Z,18.08
2019-05-18T09:01:23.429Z,18.42
2019-05-18T09:03:54.763Z,18.16
2019-05-18T09:06:26.531Z,18.37
2019-05-18T09:08:57.940Z,18.33
2019-05-18T09:11:29.592Z,18.37
2019-05-18T09:14:01.376Z,18.48
2019-05-18T09:16:32.813Z,18.76
2019-05-18T09:19:04.804Z,18.63
2019-05-18T09:21:36.349Z,18.71
2019-05-18T09:24:09.126Z,18.95
2019-05-18T09:26:42.036Z,19.02
2019-05-18T09:29:16.879Z,18.96
2019-05-18T09:31:48.421Z,18.80
2019-05-18T09:34:19.867Z,18.84
2019-05-18T09:36:51.948Z,18.89
2019-05-18T09:39:23.383Z,19.25
2019-05-18T09:41:56.266Z,19.42
2019-05-18T09:44:27.858Z,19.11
2019-05-18T09:46:59.639Z,18.79
2019-05-18T09:49:30.996Z,18.83
2019-05-18T09:52:02.747Z,18.81
2019-05-18T09:54:35.607Z,18.96
2019-05-18T09:57:06.901Z,19.19
2019-05-18T09:59:39.374Z,19.52
2019-05-18T10:02:10.812Z,19.39
2019-05-18T10:04:42.734Z,19.64
2019-05-18T10:07:14.288Z,20.04
2019-05-18T10:09:45.689Z,19.85
2019-05-18T10:12:17.157Z,19.91
2019-05-18T10:14:48.752Z,20.32
2019-05-18T10:17:20.012Z,20.31
2019-05-18T10:19:51.229Z,20.89
2019-05-18T10:22:22.965Z,21.13
2019-05-18T10:24:54.576Z,20.66
2019-05-18T10:27:27.270Z,20.47
2019-05-18T10:29:58.528Z,20.27
2019-05-18T10:32:31.409Z,20.41
2019-05-18T10:35:14.261Z,20.44
2019-05-18T10:37:45.566Z,20.57
2019-05-18T10:40:18.109Z,20.22
2019-05-18T10:42:49.649Z,20.36
2019-05-18T10:45:21.055Z,20.92
2019-05-18T10:48:28.647Z,21.08
2019-05-18T10:51:15.361Z,20.84
2019-05-18T10:53:48.030Z,20.67
2019-05-18T10:56:57.073Z,20.91
2019-05-18T10:59:28.385Z,20.72
2019-05-18T11:02:10.748Z,20.68
2019-05-18T11:04:43.023Z,20.56
2019-05-18T11:07:14.407Z,20.44
2019-05-18T11:09:57.266Z,20.65
2019-05-18T11:12:47.074Z,20.56
2019-05-18T11:15:29.131Z,20.76
2019-05-18T11:18:10.936Z,21.18
2019-05-18T11:20:48.666Z,21.30
2019-05-18T11:23:26.687Z,21.31
2019-05-18T11:26:07.664Z,21.18
2019-05-18T11:28:39.731Z,21.13
2019-05-18T11:31:11.804Z,21.05
2019-05-18T11:33:43.497Z,20.60
2019-05-18T11:36:14.968Z,20.81
2019-05-18T11:38:47.345Z,21.04
2019-05-18T11:41:18.910Z,21.58
2019-05-18T11:43:50.380Z,21.72
2019-05-18T11:46:22.211Z,21.57
2019-05-18T11:48:54.464Z,21.68
2019-05-18T11:51:26.298Z,21.80
2019-05-18T11:53:58.663Z,21.58
2019-05-18T11:56:30.678Z,21.71
2019-05-18T11:59:02.214Z,21.47
2019-05-18T12:01:33.919Z,21.70
2019-05-18T12:04:05.662Z,21.32
2019-05-18T12:06:37.385Z,21.11
2019-05-18T12:09:09.177Z,21.61
2019-05-18T12:11:41.029Z,21.17
2019-05-18T12:14:12.845Z,21.19
2019-05-18T12:16:46.116Z,21.28
2019-05-18T12:19:17.475Z,21.43
2019-05-18T12:21:49.453Z,20.87
2019-05-18T12:24:22.661Z,21.20
2019-05-18T12:26:57.912Z,21.19
2019-05-18T12:29:30.717Z,21.40
2019-05-18T12:32:03.817Z,21.55
2019-05-18T12:34:35.507Z,21.66
2019-05-18T12:37:07.082Z,20.99
2019-05-18T12:39:38.400Z,20.88
2019-05-18T12:42:09.900Z,20.93
2019-05-18T12:44:41.171Z,21.04
2019-05-18T12:47:14.486Z,21.54
2019-05-18T12:49:45.592Z,21.09
2019-05-18T12:52:18.429Z,21.21
2019-05-18T12:54:50.968Z,21.31
2019-05-18T12:57:22.955Z,21.23
2019-05-18T12:59:54.527Z,21.33
2019-05-18T13:02:26.412Z,21.40
2019-05-18T13:04:58.291Z,21.69
2019-05-18T13:07:30.428Z,19.18
2019-05-18T13:10:01.854Z,21.02
2019-05-18T13:12:43.976Z,21.39
2019-05-18T13:15:17.643Z,21.63
2019-05-18T13:17:50.930Z,21.94
2019-05-18T13:20:25.039Z,22.05
2019-05-18T13:22:56.832Z,22.02
2019-05-18T13:25:28.420Z,21.93
2019-05-18T13:27:59.723Z,21.83
2019-05-18T13:30:31.527Z,21.80
2019-05-18T13:33:05.624Z,21.43
2019-05-18T13:35:38.227Z,21.73
2019-05-18T13:38:10.059Z,21.80
2019-05-18T13:40:41.735Z,21.24
2019-05-18T13:43:13.029Z,20.43
2019-05-18T13:45:47.051Z,20.77
2019-05-18T13:48:18.498Z,17.67
2019-05-18T13:50:50.958Z,21.18
2019-05-18T13:53:22.824Z,21.25
2019-05-18T13:55:56.607Z,21.18
2019-05-18T13:58:30.779Z,21.48
2019-05-18T14:01:02.714Z,21.30
2019-05-18T14:03:34.745Z,21.75
2019-05-18T14:06:06.125Z,21.60
2019-05-18T14:08:38.672Z,21.80
2019-05-18T14:11:10.331Z,21.66
2019-05-18T14:13:42.655Z,21.80
2019-05-18T14:16:14.265Z,21.31
2019-05-18T14:18:47.853Z,21.34
2019-05-18T14:21:19.150Z,21.76
2019-05-18T14:23:50.460Z,21.51
2019-05-18T14:26:21.837Z,21.50
2019-05-18T14:28:53.109Z,21.16
2019-05-18T14:31:24.799Z,21.16
2019-05-18T14:33:56.352Z,20.93
2019-05-18T14:36:27.663Z,21.11
2019-05-18T14:38:59.357Z,21.21
2019-05-18T14:41:30.984Z,20.36
2019-05-18T14:44:02.603Z,20.68
2019-05-18T14:46:34.464Z,20.68
2019-05-18T14:49:05.720Z,20.90
2019-05-18T14:51:37.063Z,21.46
2019-05-18T14:54:08.428Z,21.31
2019-05-18T14:56:42.226Z,21.20
2019-05-18T14:59:13.560Z,21.30
2019-05-18T15:01:45.007Z,21.76
2019-05-18T15:04:18.769Z,21.57
2019-05-18T15:06:50.314Z,21.51
2019-05-18T15:09:21.570Z,21.58
2019-05-18T15:11:52.993Z,21.67
2019-05-18T15:14:24.811Z,21.90
2019-05-18T15:16:57.012Z,22.01
2019-05-18T15:19:28.869Z,21.72
2019-05-18T15:22:02.080Z,21.70
2019-05-18T15:24:34.848Z,21.29
2019-05-18T15:27:08.741Z,21.35
2019-05-18T15:29:43.379Z,21.38
2019-05-18T15:32:14.959Z,21.44
2019-05-18T15:34:47.224Z,20.95
2019-05-18T15:37:19.863Z,20.66
2019-05-18T15:39:51.742Z,20.66
2019-05-18T15:42:23.986Z,20.76
2019-05-18T15:44:55.327Z,20.65
2019-05-18T15:47:27.224Z,20.61
2019-05-18T15:50:00.129Z,21.24
2019-05-18T15:52:42.455Z,21.41
2019-05-18T15:55:18.312Z,21.44
2019-05-18T15:57:52.898Z,21.31
2019-05-18T16:00:24.968Z,21.34
2019-05-18T16:03:00.015Z,21.39
2019-05-18T16:05:34.471Z,20.90
2019-05-18T16:08:06.017Z,20.59
2019-05-18T16:10:40.019Z,20.69
2019-05-18T16:13:12.607Z,20.87
2019-05-18T16:15:46.094Z,20.85
2019-05-18T16:18:18.004Z,20.93
2019-05-18T16:20:50.960Z,20.68
2019-05-18T16:23:24.490Z,20.79
2019-05-18T16:25:56.974Z,20.83
2019-05-18T16:28:29.854Z,20.76
2019-05-18T16:31:03.432Z,20.54
2019-05-18T16:33:36.913Z,20.39
2019-05-18T16:36:10.367Z,20.30
2019-05-18T16:38:44.482Z,20.51
2019-05-18T16:41:18.050Z,20.30
2019-05-18T16:43:51.407Z,20.45
2019-05-18T16:46:23.028Z,20.65
2019-05-18T16:48:57.089Z,20.54
2019-05-18T16:51:28.993Z,20.49
2019-05-18T16:54:03.224Z,20.84
2019-05-18T16:56:36.376Z,20.97
2019-05-18T16:59:08.277Z,20.99
2019-05-18T17:01:41.641Z,20.62
2019-05-18T17:04:15.182Z,20.97
2019-05-18T17:06:47.351Z,20.68
2019-05-18T17:09:22.544Z,20.60
2019-05-18T17:11:55.163Z,21.01
2019-05-18T17:14:27.269Z,21.27
2019-05-18T17:17:01.805Z,21.07
2019-05-18T17:19:34.729Z,21.01
2019-05-18T17:22:07.546Z,21.17
2019-05-18T17:24:46.173Z,21.18
2019-05-18T17:27:22.737Z,20.99
2019-05-18T17:29:56.301Z,20.86
2019-05-18T17:32:30.479Z,20.54
2019-05-18T17:35:02.121Z,20.63
2019-05-18T17:37:45.951Z,20.95
2019-05-18T17:40:19.705Z,21.21
2019-05-18T17:43:03.382Z,21.16
2019-05-18T17:45:46.569Z,21.12
2019-05-18T17:48:31.690Z,20.91
2019-05-18T17:51:14.104Z,20.59
2019-05-18T17:53:54.000Z,20.51
2019-05-18T17:56:31.631Z,20.43
2019-05-18T17:59:05.584Z,20.49
2019-05-18T18:01:39.030Z,20.42
2019-05-18T18:04:12.218Z,20.34
2019-05-18T18:06:45.576Z,20.36
2019-05-18T18:09:17.700Z,20.13
2019-05-18T18:11:54.697Z,20.07
2019-05-18T18:14:27.617Z,19.89
2019-05-18T18:17:00.139Z,19.89
2019-05-18T18:19:33.562Z,19.73
2019-05-18T18:22:05.737Z,19.67
2019-05-18T18:24:40.651Z,19.72
2019-05-18T18:27:24.887Z,19.53
2019-05-18T18:29:50.030Z,19.62
2019-05-18T18:32:24.032Z,19.68
2019-05-18T18:34:58.386Z,19.74
2019-05-18T18:37:30.673Z,19.84
2019-05-18T18:40:02.974Z,20.11
2019-05-18T18:42:47.711Z,20.09
2019-05-18T18:45:20.973Z,19.91
2019-05-18T18:47:54.507Z,19.84
2019-05-18T18:50:26.689Z,19.62
2019-05-18T18:53:00.608Z,19.43
2019-05-18T18:55:32.713Z,19.36
2019-05-18T18:58:05.757Z,19.45
2019-05-18T19:00:38.909Z,19.34
2019-05-18T19:03:11.984Z,19.20
2019-05-18T19:05:47.003Z,19.06
2019-05-18T19:08:20.863Z,19.15
2019-05-18T19:10:53.926Z,19.15
2019-05-18T19:13:26.565Z,19.09
2019-05-18T19:16:01.338Z,19.20
2019-05-18T19:18:32.746Z,19.05
2019-05-18T19:21:05.289Z,18.82
2019-05-18T19:23:38.331Z,18.73
2019-05-18T19:26:11.740Z,18.52
2019-05-18T19:28:45.110Z,18.18
2019-05-18T19:31:17.803Z,18.01
2019-05-18T19:33:51.703Z,17.91
2019-05-18T19:36:23.137Z,17.73
2019-05-18T19:38:56.907Z,17.66
2019-05-18T19:41:34.323Z,17.67
2019-05-18T19:44:06.085Z,17.42
2019-05-18T19:46:44.286Z,17.52
2019-05-18T19:49:17.759Z,17.60
2019-05-18T19:51:51.146Z,17.56
2019-05-18T19:54:24.810Z,17.61
2019-05-18T19:56:57.194Z,17.61
2019-05-18T19:59:30.558Z,17.63
2019-05-18T20:02:04.178Z,17.69
2019-05-18T20:04:36.731Z,17.50
2019-05-18T20:07:11.438Z,17.24
2019-05-18T20:09:43.584Z,17.08
2019-05-18T20:12:15.307Z,16.87
2019-05-18T20:14:48.859Z,17.32
2019-05-18T20:17:21.300Z,17.89
2019-05-18T20:19:54.221Z,18.08
2019-05-18T20:22:27.012Z,18.17
2019-05-18T20:25:02.534Z,18.17
2019-05-18T20:27:45.141Z,18.02
2019-05-18T20:30:19.130Z,18.04
2019-05-18T20:32:53.164Z,18.09
2019-05-18T20:35:26.135Z,17.94
2019-05-18T20:37:58.200Z,17.96
2019-05-18T20:40:30.291Z,17.58
2019-05-18T20:43:02.997Z,17.15
2019-05-18T20:45:37.366Z,16.83
2019-05-18T20:48:10.049Z,16.87
2019-05-18T20:50:42.314Z,16.63
2019-05-18T20:53:15.867Z,16.23
2019-05-18T20:55:48.512Z,16.14
2019-05-18T20:58:21.586Z,16.09
2019-05-18T21:00:54.412Z,16.18
2019-05-18T21:03:28.792Z,16.18
2019-05-18T21:06:03.049Z,16.10
2019-05-18T21:08:36.318Z,16.27
2019-05-18T21:11:09.862Z,16.37
2019-05-18T21:13:42.502Z,16.48
2019-05-18T21:16:14.643Z,16.59
2019-05-18T21:18:47.201Z,16.65
2019-05-18T21:21:25.055Z,16.74
2019-05-18T21:23:53.732Z,16.99
2019-05-18T21:26:27.634Z,17.05
2019-05-18T21:29:02.000Z,17.28
2019-05-18T21:31:48.462Z,17.28
2019-05-18T21:34:33.846Z,17.14
2019-05-18T21:37:05.626Z,17.02
2019-05-18T21:39:47.240Z,16.83
2019-05-18T21:42:24.768Z,16.71
2019-05-18T21:44:59.428Z,16.52
2019-05-18T21:47:47.234Z,16.27
2019-05-18T21:50:20.744Z,16.21
2019-05-18T21:52:53.860Z,16.14
2019-05-18T21:55:44.309Z,16.33
2019-05-18T21:58:18.540Z,16.16
2019-05-18T22:00:53.825Z,16.29
2019-05-18T22:03:28.627Z,16.24
2019-05-18T22:06:03.626Z,16.22
2019-05-18T22:08:35.476Z,16.22
2019-05-18T22:11:09.329Z,16.16
2019-05-18T22:13:41.775Z,16.34
2019-05-18T22:16:15.212Z,16.29
2019-05-18T22:18:49.399Z,16.19
2019-05-18T22:21:23.485Z,15.93
2019-05-18T22:23:55.811Z,15.93
2019-05-18T22:26:31.407Z,16.22
2019-05-18T22:29:05.794Z,16.45
2019-05-18T22:31:45.669Z,16.83
2019-05-18T22:34:19.307Z,17.27
2019-05-18T22:36:56.463Z,17.61
2019-05-18T22:39:26.969Z,17.66
2019-05-18T22:42:01.296Z,17.35
2019-05-18T22:44:35.536Z,16.42
2019-05-18T22:47:08.845Z,15.42
2019-05-18T22:49:42.843Z,14.79
2019-05-18T22:52:14.912Z,14.61
2019-05-18T22:54:46.641Z,14.57
2019-05-18T22:57:21.607Z,14.65
2019-05-18T22:59:53.004Z,15.18
2019-05-18T23:02:27.282Z,15.67
2019-05-18T23:05:00.516Z,15.83
2019-05-18T23:07:43.006Z,16.18
2019-05-18T23:10:17.146Z,16.75
2019-05-18T23:12:50.958Z,17.09
2019-05-18T23:15:22.940Z,16.84
2019-05-18T23:17:56.796Z,16.76
2019-05-18T23:20:30.781Z,16.77
2019-05-18T23:23:05.581Z,16.90
2019-05-18T23:25:39.970Z,16.84
2019-05-18T23:28:12.404Z,16.66
2019-05-18T23:30:44.884Z,16.61
2019-05-18T23:33:16.816Z,16.64
2019-05-18T23:35:48.352Z,16.33
2019-05-18T23:38:22.047Z,16.15
2019-05-18T23:40:58.329Z,15.82
2019-05-18T23:43:29.961Z,15.72
2019-05-18T23:46:03.186Z,15.74
2019-05-18T23:48:36.069Z,15.78
2019-05-18T23:51:11.076Z,15.70
2019-05-18T23:53:44.961Z,15.63
2019-05-18T23:56:18.005Z,15.26
2019-05-18T23:58:52.489Z,15.46
